Underhill Center, Vermont
Current Conditions -  °F | °C
As of 6:54 AM on Monday 20 Oct 2014 (Local Time) from KBTV Reporting Station
Broken Clouds Broken Clouds  
Wind Chill: 30°   Ceiling: 25000
Heat Index: 35°   Visibility: 10mi
Dew Point: 25°   Wind: 6mph
Humidity: 67%   Direction: 190°S
Pressure: 30"   Gusts: NA
Location:  44.51°N, 72.9°W
Report Text: KBTV 201054Z 19005KT 10SM FEW040 SCT150 BKN250 02/M04 A3000 RMK AO2 SLP163 T00171039
Loading
Personal Weather Stations






























Interactive Weather Map
Tropical Storm Tracking
New forecast layout! Learn more

10-Day Weather Forecast

Advertisements
Track Severe Weather on mobile